sensor_id;sensor_type;location;lat;lon;timestamp;P1;durP1;ratioP1;P2;durP2;ratioP2
41446;SDS011;27185;52.040;4.490;2023-08-07T00:01:27;14.90;;;2.08;;
41446;SDS011;27185;52.040;4.490;2023-08-07T00:04:13;6.38;;;1.10;;
41446;SDS011;27185;52.040;4.490;2023-08-07T00:06:58;6.97;;;1.90;;
41446;SDS011;27185;52.040;4.490;2023-08-07T00:09:44;6.80;;;1.23;;
41446;SDS011;27185;52.040;4.490;2023-08-07T00:12:30;6.70;;;1.42;;
41446;SDS011;27185;52.040;4.490;2023-08-07T00:15:15;3.72;;;0.90;;
41446;SDS011;27185;52.040;4.490;2023-08-07T00:18:01;4.70;;;0.95;;
41446;SDS011;27185;52.040;4.490;2023-08-07T00:20:47;6.32;;;1.58;;
41446;SDS011;27185;52.040;4.490;2023-08-07T00:23:33;9.40;;;1.92;;
41446;SDS011;27185;52.040;4.490;2023-08-07T00:26:19;7.63;;;1.67;;
41446;SDS011;27185;52.040;4.490;2023-08-07T00:29:05;11.43;;;1.95;;
41446;SDS011;27185;52.040;4.490;2023-08-07T00:31:50;5.70;;;1.50;;
41446;SDS011;27185;52.040;4.490;2023-08-07T00:34:36;7.75;;;1.52;;
41446;SDS011;27185;52.040;4.490;2023-08-07T00:37:21;10.85;;;1.80;;
41446;SDS011;27185;52.040;4.490;2023-08-07T00:40:07;12.18;;;1.83;;
41446;SDS011;27185;52.040;4.490;2023-08-07T00:42:53;10.82;;;2.78;;
41446;SDS011;27185;52.040;4.490;2023-08-07T00:45:41;11.90;;;2.05;;
41446;SDS011;27185;52.040;4.490;2023-08-07T00:48:28;9.43;;;1.70;;
41446;SDS011;27185;52.040;4.490;2023-08-07T00:54:02;9.38;;;1.65;;
41446;SDS011;27185;52.040;4.490;2023-08-07T00:56:49;6.15;;;1.30;;
41446;SDS011;27185;52.040;4.490;2023-08-07T00:59:35;14.25;;;1.55;;
41446;SDS011;27185;52.040;4.490;2023-08-07T01:02:21;10.25;;;1.95;;
41446;SDS011;27185;52.040;4.490;2023-08-07T01:05:07;12.60;;;2.05;;
41446;SDS011;27185;52.040;4.490;2023-08-07T01:07:53;8.63;;;1.90;;
41446;SDS011;27185;52.040;4.490;2023-08-07T01:10:53;10.52;;;2.42;;
41446;SDS011;27185;52.040;4.490;2023-08-07T01:16:38;6.97;;;2.03;;
41446;SDS011;27185;52.040;4.490;2023-08-07T01:19:32;7.10;;;1.30;;
41446;SDS011;27185;52.040;4.490;2023-08-07T01:22:20;6.18;;;1.73;;
41446;SDS011;27185;52.040;4.490;2023-08-07T01:25:06;11.52;;;1.98;;
41446;SDS011;27185;52.040;4.490;2023-08-07T01:30:41;10.73;;;2.40;;
41446;SDS011;27185;52.040;4.490;2023-08-07T01:33:32;6.57;;;1.98;;
41446;SDS011;27185;52.040;4.490;2023-08-07T01:36:25;7.40;;;1.65;;
41446;SDS011;27185;52.040;4.490;2023-08-07T01:39:13;8.13;;;1.80;;
41446;SDS011;27185;52.040;4.490;2023-08-07T01:42:00;17.70;;;3.05;;
41446;SDS011;27185;52.040;4.490;2023-08-07T01:44:47;11.38;;;1.77;;
41446;SDS011;27185;52.040;4.490;2023-08-07T01:47:33;11.32;;;1.95;;
41446;SDS011;27185;52.040;4.490;2023-08-07T01:50:20;13.10;;;1.98;;
41446;SDS011;27185;52.040;4.490;2023-08-07T01:53:06;9.40;;;1.67;;
41446;SDS011;27185;52.040;4.490;2023-08-07T01:55:51;11.00;;;2.08;;
41446;SDS011;27185;52.040;4.490;2023-08-07T01:58:37;8.52;;;1.52;;
41446;SDS011;27185;52.040;4.490;2023-08-07T02:01:22;10.90;;;2.50;;
41446;SDS011;27185;52.040;4.490;2023-08-07T02:04:08;10.43;;;1.88;;
41446;SDS011;27185;52.040;4.490;2023-08-07T02:06:53;11.15;;;2.67;;
41446;SDS011;27185;52.040;4.490;2023-08-07T02:09:39;9.73;;;2.25;;
41446;SDS011;27185;52.040;4.490;2023-08-07T02:12:25;8.18;;;1.63;;
41446;SDS011;27185;52.040;4.490;2023-08-07T02:15:11;10.32;;;2.33;;
41446;SDS011;27185;52.040;4.490;2023-08-07T02:17:57;8.32;;;1.73;;
41446;SDS011;27185;52.040;4.490;2023-08-07T02:20:42;11.73;;;1.73;;
41446;SDS011;27185;52.040;4.490;2023-08-07T02:23:28;11.57;;;2.00;;
41446;SDS011;27185;52.040;4.490;2023-08-07T02:26:14;7.22;;;1.77;;
41446;SDS011;27185;52.040;4.490;2023-08-07T02:28:59;12.75;;;2.33;;
41446;SDS011;27185;52.040;4.490;2023-08-07T02:31:45;6.43;;;1.38;;
41446;SDS011;27185;52.040;4.490;2023-08-07T02:34:30;7.00;;;2.05;;
41446;SDS011;27185;52.040;4.490;2023-08-07T02:37:16;11.43;;;2.17;;
41446;SDS011;27185;52.040;4.490;2023-08-07T02:40:02;9.52;;;2.30;;
41446;SDS011;27185;52.040;4.490;2023-08-07T02:42:47;7.80;;;1.20;;
41446;SDS011;27185;52.040;4.490;2023-08-07T02:45:34;4.13;;;0.98;;
41446;SDS011;27185;52.040;4.490;2023-08-07T02:48:20;8.27;;;1.70;;
41446;SDS011;27185;52.040;4.490;2023-08-07T02:51:06;6.20;;;0.93;;
41446;SDS011;27185;52.040;4.490;2023-08-07T02:53:51;4.82;;;0.80;;
41446;SDS011;27185;52.040;4.490;2023-08-07T02:56:37;3.45;;;0.70;;
41446;SDS011;27185;52.040;4.490;2023-08-07T02:59:22;3.20;;;0.90;;
41446;SDS011;27185;52.040;4.490;2023-08-07T03:02:08;5.93;;;1.08;;
41446;SDS011;27185;52.040;4.490;2023-08-07T03:04:53;7.15;;;1.10;;
41446;SDS011;27185;52.040;4.490;2023-08-07T03:07:39;9.65;;;1.55;;
41446;SDS011;27185;52.040;4.490;2023-08-07T03:10:25;7.95;;;1.60;;
41446;SDS011;27185;52.040;4.490;2023-08-07T03:13:10;7.43;;;1.85;;
41446;SDS011;27185;52.040;4.490;2023-08-07T03:15:59;7.00;;;1.40;;
41446;SDS011;27185;52.040;4.490;2023-08-07T03:18:46;11.55;;;1.98;;
41446;SDS011;27185;52.040;4.490;2023-08-07T03:21:32;7.03;;;1.13;;
41446;SDS011;27185;52.040;4.490;2023-08-07T03:24:18;5.75;;;1.05;;
41446;SDS011;27185;52.040;4.490;2023-08-07T03:27:04;7.00;;;1.20;;
41446;SDS011;27185;52.040;4.490;2023-08-07T03:29:50;6.85;;;1.27;;
41446;SDS011;27185;52.040;4.490;2023-08-07T03:32:35;4.70;;;1.35;;
41446;SDS011;27185;52.040;4.490;2023-08-07T03:35:21;4.70;;;1.00;;
41446;SDS011;27185;52.040;4.490;2023-08-07T03:38:06;6.00;;;1.40;;
41446;SDS011;27185;52.040;4.490;2023-08-07T03:40:52;7.95;;;1.15;;
41446;SDS011;27185;52.040;4.490;2023-08-07T03:43:37;5.65;;;1.15;;
41446;SDS011;27185;52.040;4.490;2023-08-07T03:46:23;8.13;;;1.60;;
41446;SDS011;27185;52.040;4.490;2023-08-07T03:49:09;7.90;;;1.45;;
41446;SDS011;27185;52.040;4.490;2023-08-07T03:51:54;7.13;;;1.35;;
41446;SDS011;27185;52.040;4.490;2023-08-07T03:54:41;7.90;;;1.27;;
41446;SDS011;27185;52.040;4.490;2023-08-07T03:57:26;8.57;;;1.35;;
41446;SDS011;27185;52.040;4.490;2023-08-07T04:00:14;12.25;;;1.92;;
41446;SDS011;27185;52.040;4.490;2023-08-07T04:02:59;10.57;;;1.70;;
41446;SDS011;27185;52.040;4.490;2023-08-07T04:05:45;14.40;;;2.22;;
41446;SDS011;27185;52.040;4.490;2023-08-07T04:08:30;8.88;;;2.10;;
41446;SDS011;27185;52.040;4.490;2023-08-07T04:11:16;16.65;;;1.90;;
41446;SDS011;27185;52.040;4.490;2023-08-07T04:14:02;12.05;;;2.10;;
41446;SDS011;27185;52.040;4.490;2023-08-07T04:16:49;10.35;;;1.60;;
41446;SDS011;27185;52.040;4.490;2023-08-07T04:19:34;9.93;;;1.48;;
41446;SDS011;27185;52.040;4.490;2023-08-07T04:22:20;7.13;;;2.10;;
41446;SDS011;27185;52.040;4.490;2023-08-07T04:25:06;8.23;;;1.63;;
41446;SDS011;27185;52.040;4.490;2023-08-07T04:27:51;7.55;;;1.73;;
41446;SDS011;27185;52.040;4.490;2023-08-07T04:30:37;7.35;;;1.23;;
41446;SDS011;27185;52.040;4.490;2023-08-07T04:33:23;8.82;;;1.30;;
41446;SDS011;27185;52.040;4.490;2023-08-07T04:36:09;9.68;;;1.50;;
41446;SDS011;27185;52.040;4.490;2023-08-07T04:38:54;10.15;;;1.00;;
41446;SDS011;27185;52.040;4.490;2023-08-07T04:41:40;10.40;;;1.45;;
41446;SDS011;27185;52.040;4.490;2023-08-07T04:44:26;7.68;;;1.08;;
41446;SDS011;27185;52.040;4.490;2023-08-07T04:47:12;6.43;;;1.27;;
41446;SDS011;27185;52.040;4.490;2023-08-07T04:49:57;8.48;;;1.23;;
41446;SDS011;27185;52.040;4.490;2023-08-07T04:52:43;7.88;;;1.30;;
41446;SDS011;27185;52.040;4.490;2023-08-07T04:55:29;7.70;;;1.33;;
41446;SDS011;27185;52.040;4.490;2023-08-07T04:58:15;8.13;;;1.08;;
41446;SDS011;27185;52.040;4.490;2023-08-07T05:01:00;7.63;;;1.48;;
41446;SDS011;27185;52.040;4.490;2023-08-07T05:03:46;8.38;;;1.25;;
41446;SDS011;27185;52.040;4.490;2023-08-07T05:06:32;7.07;;;1.00;;
41446;SDS011;27185;52.040;4.490;2023-08-07T05:09:17;6.70;;;1.20;;
41446;SDS011;27185;52.040;4.490;2023-08-07T05:12:03;9.52;;;1.63;;
41446;SDS011;27185;52.040;4.490;2023-08-07T05:14:49;7.85;;;1.13;;
41446;SDS011;27185;52.040;4.490;2023-08-07T05:17:35;7.13;;;1.10;;
41446;SDS011;27185;52.040;4.490;2023-08-07T05:20:20;6.40;;;1.45;;
41446;SDS011;27185;52.040;4.490;2023-08-07T05:23:06;7.03;;;1.15;;
41446;SDS011;27185;52.040;4.490;2023-08-07T05:25:52;10.05;;;1.83;;
41446;SDS011;27185;52.040;4.490;2023-08-07T05:28:37;4.32;;;1.15;;
41446;SDS011;27185;52.040;4.490;2023-08-07T05:31:23;7.88;;;1.13;;
41446;SDS011;27185;52.040;4.490;2023-08-07T05:34:09;7.32;;;1.33;;
41446;SDS011;27185;52.040;4.490;2023-08-07T05:36:56;8.90;;;1.40;;
41446;SDS011;27185;52.040;4.490;2023-08-07T05:39:42;8.40;;;1.38;;
41446;SDS011;27185;52.040;4.490;2023-08-07T05:42:28;10.63;;;1.58;;
41446;SDS011;27185;52.040;4.490;2023-08-07T05:45:14;10.68;;;1.42;;
41446;SDS011;27185;52.040;4.490;2023-08-07T05:48:00;9.23;;;1.35;;
41446;SDS011;27185;52.040;4.490;2023-08-07T05:50:45;8.38;;;1.58;;
41446;SDS011;27185;52.040;4.490;2023-08-07T05:53:31;9.50;;;1.33;;
41446;SDS011;27185;52.040;4.490;2023-08-07T05:56:16;6.50;;;1.23;;
41446;SDS011;27185;52.040;4.490;2023-08-07T05:59:04;5.07;;;1.30;;
41446;SDS011;27185;52.040;4.490;2023-08-07T06:01:49;5.28;;;0.98;;
41446;SDS011;27185;52.040;4.490;2023-08-07T06:04:36;7.70;;;1.42;;
41446;SDS011;27185;52.040;4.490;2023-08-07T06:07:21;9.93;;;1.58;;
41446;SDS011;27185;52.040;4.490;2023-08-07T06:10:07;10.68;;;1.58;;
41446;SDS011;27185;52.040;4.490;2023-08-07T06:12:53;14.73;;;2.70;;
41446;SDS011;27185;52.040;4.490;2023-08-07T06:15:38;7.47;;;1.80;;
41446;SDS011;27185;52.040;4.490;2023-08-07T06:18:24;8.07;;;1.35;;
41446;SDS011;27185;52.040;4.490;2023-08-07T06:21:10;6.72;;;1.25;;
41446;SDS011;27185;52.040;4.490;2023-08-07T06:23:55;7.07;;;1.10;;
41446;SDS011;27185;52.040;4.490;2023-08-07T06:26:42;6.32;;;1.05;;
41446;SDS011;27185;52.040;4.490;2023-08-07T06:29:27;7.75;;;1.40;;
41446;SDS011;27185;52.040;4.490;2023-08-07T06:32:13;9.77;;;1.40;;
41446;SDS011;27185;52.040;4.490;2023-08-07T06:34:58;7.85;;;1.55;;
41446;SDS011;27185;52.040;4.490;2023-08-07T06:37:44;4.97;;;1.08;;
41446;SDS011;27185;52.040;4.490;2023-08-07T06:40:29;6.20;;;1.50;;
41446;SDS011;27185;52.040;4.490;2023-08-07T06:43:15;6.55;;;0.95;;
41446;SDS011;27185;52.040;4.490;2023-08-07T06:46:00;11.25;;;1.92;;
41446;SDS011;27185;52.040;4.490;2023-08-07T06:48:49;7.75;;;1.17;;
41446;SDS011;27185;52.040;4.490;2023-08-07T06:51:34;8.77;;;1.23;;
41446;SDS011;27185;52.040;4.490;2023-08-07T06:54:20;7.13;;;1.08;;
41446;SDS011;27185;52.040;4.490;2023-08-07T06:57:05;7.35;;;1.40;;
41446;SDS011;27185;52.040;4.490;2023-08-07T06:59:51;6.07;;;0.98;;
41446;SDS011;27185;52.040;4.490;2023-08-07T07:02:37;6.70;;;1.20;;
41446;SDS011;27185;52.040;4.490;2023-08-07T07:05:22;7.80;;;1.20;;
41446;SDS011;27185;52.040;4.490;2023-08-07T07:08:08;6.22;;;1.35;;
41446;SDS011;27185;52.040;4.490;2023-08-07T07:10:54;10.57;;;1.70;;
41446;SDS011;27185;52.040;4.490;2023-08-07T07:13:39;5.63;;;1.00;;
41446;SDS011;27185;52.040;4.490;2023-08-07T07:16:27;8.68;;;1.58;;
41446;SDS011;27185;52.040;4.490;2023-08-07T07:19:13;7.18;;;0.98;;
41446;SDS011;27185;52.040;4.490;2023-08-07T07:21:58;7.28;;;1.40;;
41446;SDS011;27185;52.040;4.490;2023-08-07T07:24:44;7.70;;;1.30;;
41446;SDS011;27185;52.040;4.490;2023-08-07T07:27:30;9.52;;;1.67;;
41446;SDS011;27185;52.040;4.490;2023-08-07T07:30:17;5.13;;;1.00;;
41446;SDS011;27185;52.040;4.490;2023-08-07T07:33:02;5.78;;;0.98;;
41446;SDS011;27185;52.040;4.490;2023-08-07T07:35:48;4.30;;;0.90;;
41446;SDS011;27185;52.040;4.490;2023-08-07T07:38:34;4.93;;;1.08;;
41446;SDS011;27185;52.040;4.490;2023-08-07T07:41:19;5.45;;;1.02;;
41446;SDS011;27185;52.040;4.490;2023-08-07T07:46:53;4.93;;;1.05;;
41446;SDS011;27185;52.040;4.490;2023-08-07T07:49:38;4.95;;;1.08;;
41446;SDS011;27185;52.040;4.490;2023-08-07T07:52:24;4.10;;;0.85;;
41446;SDS011;27185;52.040;4.490;2023-08-07T07:55:10;4.68;;;0.70;;
41446;SDS011;27185;52.040;4.490;2023-08-07T07:57:57;4.20;;;0.88;;
41446;SDS011;27185;52.040;4.490;2023-08-07T08:00:42;3.47;;;1.00;;
41446;SDS011;27185;52.040;4.490;2023-08-07T08:03:28;4.63;;;0.90;;
41446;SDS011;27185;52.040;4.490;2023-08-07T08:06:13;7.03;;;0.98;;
41446;SDS011;27185;52.040;4.490;2023-08-07T08:08:59;9.65;;;0.90;;
41446;SDS011;27185;52.040;4.490;2023-08-07T08:11:52;6.97;;;1.10;;
41446;SDS011;27185;52.040;4.490;2023-08-07T08:14:38;6.85;;;1.40;;
41446;SDS011;27185;52.040;4.490;2023-08-07T08:17:24;7.32;;;1.05;;
41446;SDS011;27185;52.040;4.490;2023-08-07T08:20:10;5.82;;;0.80;;
41446;SDS011;27185;52.040;4.490;2023-08-07T08:22:56;3.75;;;0.80;;
41446;SDS011;27185;52.040;4.490;2023-08-07T08:25:42;3.63;;;1.00;;
41446;SDS011;27185;52.040;4.490;2023-08-07T08:28:27;6.00;;;0.88;;
41446;SDS011;27185;52.040;4.490;2023-08-07T08:31:13;8.05;;;1.02;;
41446;SDS011;27185;52.040;4.490;2023-08-07T08:33:59;3.88;;;1.10;;
41446;SDS011;27185;52.040;4.490;2023-08-07T08:36:45;5.47;;;1.30;;
41446;SDS011;27185;52.040;4.490;2023-08-07T08:39:30;5.47;;;1.00;;
41446;SDS011;27185;52.040;4.490;2023-08-07T08:42:16;6.97;;;1.10;;
41446;SDS011;27185;52.040;4.490;2023-08-07T08:45:06;5.40;;;0.80;;
41446;SDS011;27185;52.040;4.490;2023-08-07T08:47:57;4.93;;;0.82;;
41446;SDS011;27185;52.040;4.490;2023-08-07T08:50:46;5.07;;;1.05;;
41446;SDS011;27185;52.040;4.490;2023-08-07T08:53:36;5.57;;;0.70;;
41446;SDS011;27185;52.040;4.490;2023-08-07T08:56:22;5.72;;;0.80;;
41446;SDS011;27185;52.040;4.490;2023-08-07T08:59:08;7.25;;;0.90;;
41446;SDS011;27185;52.040;4.490;2023-08-07T09:01:54;4.65;;;1.00;;
41446;SDS011;27185;52.040;4.490;2023-08-07T09:04:40;5.55;;;0.70;;
41446;SDS011;27185;52.040;4.490;2023-08-07T09:07:27;3.73;;;0.60;;
41446;SDS011;27185;52.040;4.490;2023-08-07T09:10:13;3.58;;;0.70;;
41446;SDS011;27185;52.040;4.490;2023-08-07T09:13:01;4.30;;;1.05;;
41446;SDS011;27185;52.040;4.490;2023-08-07T09:15:50;6.85;;;1.00;;
41446;SDS011;27185;52.040;4.490;2023-08-07T09:18:36;6.00;;;0.90;;
41446;SDS011;27185;52.040;4.490;2023-08-07T09:21:22;4.78;;;0.90;;
41446;SDS011;27185;52.040;4.490;2023-08-07T09:24:08;4.43;;;0.90;;
41446;SDS011;27185;52.040;4.490;2023-08-07T09:26:54;7.70;;;1.17;;
41446;SDS011;27185;52.040;4.490;2023-08-07T09:29:40;6.07;;;0.70;;
41446;SDS011;27185;52.040;4.490;2023-08-07T09:32:27;3.10;;;0.80;;
41446;SDS011;27185;52.040;4.490;2023-08-07T09:35:13;4.13;;;0.88;;
41446;SDS011;27185;52.040;4.490;2023-08-07T09:37:59;6.72;;;1.10;;
41446;SDS011;27185;52.040;4.490;2023-08-07T09:40:46;6.65;;;0.73;;
41446;SDS011;27185;52.040;4.490;2023-08-07T09:43:34;4.07;;;0.93;;
41446;SDS011;27185;52.040;4.490;2023-08-07T09:46:20;3.55;;;0.60;;
41446;SDS011;27185;52.040;4.490;2023-08-07T09:49:06;4.22;;;0.98;;
41446;SDS011;27185;52.040;4.490;2023-08-07T09:51:51;2.42;;;0.90;;
41446;SDS011;27185;52.040;4.490;2023-08-07T09:54:37;3.22;;;0.60;;
41446;SDS011;27185;52.040;4.490;2023-08-07T09:57:23;4.07;;;0.80;;
41446;SDS011;27185;52.040;4.490;2023-08-07T10:00:09;4.75;;;0.60;;
41446;SDS011;27185;52.040;4.490;2023-08-07T10:02:56;2.58;;;0.75;;
41446;SDS011;27185;52.040;4.490;2023-08-07T10:05:42;2.50;;;0.82;;
41446;SDS011;27185;52.040;4.490;2023-08-07T10:08:28;2.90;;;0.60;;
41446;SDS011;27185;52.040;4.490;2023-08-07T10:11:15;3.08;;;0.73;;
41446;SDS011;27185;52.040;4.490;2023-08-07T10:14:01;4.00;;;0.82;;
41446;SDS011;27185;52.040;4.490;2023-08-07T10:16:47;2.70;;;0.77;;
41446;SDS011;27185;52.040;4.490;2023-08-07T10:19:34;4.60;;;0.80;;
41446;SDS011;27185;52.040;4.490;2023-08-07T10:22:19;3.63;;;0.80;;
41446;SDS011;27185;52.040;4.490;2023-08-07T10:25:11;2.58;;;0.90;;
41446;SDS011;27185;52.040;4.490;2023-08-07T10:27:57;5.23;;;0.70;;
41446;SDS011;27185;52.040;4.490;2023-08-07T10:30:45;4.32;;;0.90;;
41446;SDS011;27185;52.040;4.490;2023-08-07T10:33:31;4.75;;;0.85;;
41446;SDS011;27185;52.040;4.490;2023-08-07T10:36:17;5.45;;;1.10;;
41446;SDS011;27185;52.040;4.490;2023-08-07T10:39:10;3.75;;;0.70;;
41446;SDS011;27185;52.040;4.490;2023-08-07T10:41:57;4.90;;;0.70;;
41446;SDS011;27185;52.040;4.490;2023-08-07T10:44:47;4.18;;;0.90;;
41446;SDS011;27185;52.040;4.490;2023-08-07T10:47:35;3.90;;;0.75;;
41446;SDS011;27185;52.040;4.490;2023-08-07T10:50:27;5.47;;;0.80;;
41446;SDS011;27185;52.040;4.490;2023-08-07T10:53:20;5.80;;;1.00;;
41446;SDS011;27185;52.040;4.490;2023-08-07T10:56:32;5.57;;;0.80;;
41446;SDS011;27185;52.040;4.490;2023-08-07T10:59:20;5.32;;;0.70;;
41446;SDS011;27185;52.040;4.490;2023-08-07T11:02:07;3.17;;;0.70;;
41446;SDS011;27185;52.040;4.490;2023-08-07T11:04:56;4.13;;;0.80;;
41446;SDS011;27185;52.040;4.490;2023-08-07T11:07:42;7.15;;;1.40;;
41446;SDS011;27185;52.040;4.490;2023-08-07T11:10:29;4.95;;;0.77;;
41446;SDS011;27185;52.040;4.490;2023-08-07T11:13:15;3.90;;;0.70;;
41446;SDS011;27185;52.040;4.490;2023-08-07T11:16:04;3.97;;;0.70;;
41446;SDS011;27185;52.040;4.490;2023-08-07T11:18:59;3.13;;;0.60;;
41446;SDS011;27185;52.040;4.490;2023-08-07T11:21:48;3.55;;;0.70;;
41446;SDS011;27185;52.040;4.490;2023-08-07T11:24:38;2.85;;;1.00;;
41446;SDS011;27185;52.040;4.490;2023-08-07T11:27:24;3.95;;;0.70;;
41446;SDS011;27185;52.040;4.490;2023-08-07T11:30:10;3.47;;;0.80;;
41446;SDS011;27185;52.040;4.490;2023-08-07T11:32:57;3.45;;;0.70;;
41446;SDS011;27185;52.040;4.490;2023-08-07T11:35:43;4.40;;;0.73;;
41446;SDS011;27185;52.040;4.490;2023-08-07T11:41:18;5.55;;;0.85;;
41446;SDS011;27185;52.040;4.490;2023-08-07T11:44:07;3.45;;;0.82;;
41446;SDS011;27185;52.040;4.490;2023-08-07T11:46:53;3.35;;;1.00;;
41446;SDS011;27185;52.040;4.490;2023-08-07T11:49:39;3.25;;;0.82;;
41446;SDS011;27185;52.040;4.490;2023-08-07T11:52:24;5.75;;;0.80;;
41446;SDS011;27185;52.040;4.490;2023-08-07T11:55:10;3.47;;;0.85;;
41446;SDS011;27185;52.040;4.490;2023-08-07T11:57:59;4.65;;;1.08;;
41446;SDS011;27185;52.040;4.490;2023-08-07T12:00:48;3.72;;;0.80;;
41446;SDS011;27185;52.040;4.490;2023-08-07T12:03:38;3.60;;;0.82;;
41446;SDS011;27185;52.040;4.490;2023-08-07T12:06:26;4.72;;;1.13;;
41446;SDS011;27185;52.040;4.490;2023-08-07T12:09:11;4.72;;;0.90;;
41446;SDS011;27185;52.040;4.490;2023-08-07T12:11:58;3.15;;;1.00;;
41446;SDS011;27185;52.040;4.490;2023-08-07T12:14:43;2.85;;;0.73;;
41446;SDS011;27185;52.040;4.490;2023-08-07T12:17:31;4.85;;;0.70;;
41446;SDS011;27185;52.040;4.490;2023-08-07T12:20:17;5.95;;;0.90;;
41446;SDS011;27185;52.040;4.490;2023-08-07T12:23:04;3.95;;;0.80;;
41446;SDS011;27185;52.040;4.490;2023-08-07T12:25:50;2.63;;;1.15;;
41446;SDS011;27185;52.040;4.490;2023-08-07T12:28:37;2.05;;;0.90;;
41446;SDS011;27185;52.040;4.490;2023-08-07T12:31:23;4.00;;;0.85;;
41446;SDS011;27185;52.040;4.490;2023-08-07T12:34:08;4.13;;;0.90;;
41446;SDS011;27185;52.040;4.490;2023-08-07T12:36:55;5.38;;;0.90;;
41446;SDS011;27185;52.040;4.490;2023-08-07T12:39:41;3.70;;;1.00;;
41446;SDS011;27185;52.040;4.490;2023-08-07T12:42:27;4.15;;;1.08;;
41446;SDS011;27185;52.040;4.490;2023-08-07T12:45:14;4.10;;;0.90;;
41446;SDS011;27185;52.040;4.490;2023-08-07T12:48:01;4.57;;;1.10;;
41446;SDS011;27185;52.040;4.490;2023-08-07T12:50:47;2.58;;;0.82;;
41446;SDS011;27185;52.040;4.490;2023-08-07T12:53:32;3.10;;;0.88;;
41446;SDS011;27185;52.040;4.490;2023-08-07T12:56:18;4.80;;;1.05;;
41446;SDS011;27185;52.040;4.490;2023-08-07T12:59:03;4.57;;;0.98;;
41446;SDS011;27185;52.040;4.490;2023-08-07T13:01:49;3.00;;;1.00;;
41446;SDS011;27185;52.040;4.490;2023-08-07T13:04:35;5.05;;;0.90;;
41446;SDS011;27185;52.040;4.490;2023-08-07T13:07:20;4.80;;;1.27;;
41446;SDS011;27185;52.040;4.490;2023-08-07T13:10:06;4.55;;;1.00;;
41446;SDS011;27185;52.040;4.490;2023-08-07T13:12:53;3.88;;;0.98;;
41446;SDS011;27185;52.040;4.490;2023-08-07T13:15:39;3.53;;;0.93;;
41446;SDS011;27185;52.040;4.490;2023-08-07T13:18:24;5.65;;;1.48;;
41446;SDS011;27185;52.040;4.490;2023-08-07T13:21:10;3.97;;;1.02;;
41446;SDS011;27185;52.040;4.490;2023-08-07T13:23:55;4.28;;;0.93;;
41446;SDS011;27185;52.040;4.490;2023-08-07T13:26:42;3.00;;;1.33;;
41446;SDS011;27185;52.040;4.490;2023-08-07T13:29:29;4.50;;;0.98;;
41446;SDS011;27185;52.040;4.490;2023-08-07T13:32:15;3.83;;;0.80;;
41446;SDS011;27185;52.040;4.490;2023-08-07T13:35:03;2.42;;;0.90;;
41446;SDS011;27185;52.040;4.490;2023-08-07T13:37:50;4.30;;;0.98;;
41446;SDS011;27185;52.040;4.490;2023-08-07T13:40:35;3.60;;;1.08;;
41446;SDS011;27185;52.040;4.490;2023-08-07T13:43:21;2.95;;;0.85;;
41446;SDS011;27185;52.040;4.490;2023-08-07T13:46:06;4.93;;;1.23;;
41446;SDS011;27185;52.040;4.490;2023-08-07T13:48:52;6.43;;;1.20;;
41446;SDS011;27185;52.040;4.490;2023-08-07T13:51:37;2.70;;;0.98;;
41446;SDS011;27185;52.040;4.490;2023-08-07T13:54:23;2.65;;;0.80;;
41446;SDS011;27185;52.040;4.490;2023-08-07T13:57:09;4.18;;;0.93;;
41446;SDS011;27185;52.040;4.490;2023-08-07T13:59:55;2.15;;;0.80;;
41446;SDS011;27185;52.040;4.490;2023-08-07T14:02:40;3.40;;;0.95;;
41446;SDS011;27185;52.040;4.490;2023-08-07T14:05:26;5.65;;;0.90;;
41446;SDS011;27185;52.040;4.490;2023-08-07T14:08:11;3.13;;;1.00;;
41446;SDS011;27185;52.040;4.490;2023-08-07T14:10:57;2.67;;;0.98;;
41446;SDS011;27185;52.040;4.490;2023-08-07T14:13:43;3.78;;;0.73;;
41446;SDS011;27185;52.040;4.490;2023-08-07T14:16:29;1.98;;;0.55;;
41446;SDS011;27185;52.040;4.490;2023-08-07T14:19:16;2.13;;;0.80;;
41446;SDS011;27185;52.040;4.490;2023-08-07T14:22:01;1.98;;;0.80;;
41446;SDS011;27185;52.040;4.490;2023-08-07T14:24:51;1.67;;;0.60;;
41446;SDS011;27185;52.040;4.490;2023-08-07T14:27:36;2.08;;;0.90;;
41446;SDS011;27185;52.040;4.490;2023-08-07T14:30:22;4.47;;;0.90;;
41446;SDS011;27185;52.040;4.490;2023-08-07T14:33:09;4.00;;;0.60;;
41446;SDS011;27185;52.040;4.490;2023-08-07T14:35:55;1.52;;;0.65;;
41446;SDS011;27185;52.040;4.490;2023-08-07T14:38:52;4.18;;;0.75;;
41446;SDS011;27185;52.040;4.490;2023-08-07T14:41:50;2.25;;;0.80;;
41446;SDS011;27185;52.040;4.490;2023-08-07T14:44:53;1.60;;;0.60;;
41446;SDS011;27185;52.040;4.490;2023-08-07T14:47:47;4.28;;;0.80;;
41446;SDS011;27185;52.040;4.490;2023-08-07T14:50:32;3.63;;;0.80;;
41446;SDS011;27185;52.040;4.490;2023-08-07T14:53:18;2.95;;;1.00;;
41446;SDS011;27185;52.040;4.490;2023-08-07T14:56:04;2.70;;;0.70;;
41446;SDS011;27185;52.040;4.490;2023-08-07T14:58:49;3.58;;;0.68;;
41446;SDS011;27185;52.040;4.490;2023-08-07T15:01:35;2.20;;;0.80;;
41446;SDS011;27185;52.040;4.490;2023-08-07T15:04:24;2.03;;;0.77;;
41446;SDS011;27185;52.040;4.490;2023-08-07T15:07:10;2.30;;;0.70;;
41446;SDS011;27185;52.040;4.490;2023-08-07T15:09:55;5.53;;;0.80;;
41446;SDS011;27185;52.040;4.490;2023-08-07T15:12:41;3.65;;;0.82;;
41446;SDS011;27185;52.040;4.490;2023-08-07T15:15:27;1.70;;;0.63;;
41446;SDS011;27185;52.040;4.490;2023-08-07T15:18:12;2.67;;;0.75;;
41446;SDS011;27185;52.040;4.490;2023-08-07T15:20:58;2.45;;;0.60;;
41446;SDS011;27185;52.040;4.490;2023-08-07T15:23:45;1.73;;;0.60;;
41446;SDS011;27185;52.040;4.490;2023-08-07T15:26:32;2.35;;;0.50;;
41446;SDS011;27185;52.040;4.490;2023-08-07T15:29:18;1.10;;;0.50;;
41446;SDS011;27185;52.040;4.490;2023-08-07T15:32:03;1.95;;;0.60;;
41446;SDS011;27185;52.040;4.490;2023-08-07T15:34:49;1.80;;;0.60;;
41446;SDS011;27185;52.040;4.490;2023-08-07T15:37:35;1.02;;;0.50;;
41446;SDS011;27185;52.040;4.490;2023-08-07T15:40:21;2.13;;;0.52;;
41446;SDS011;27185;52.040;4.490;2023-08-07T15:43:08;3.28;;;0.55;;
41446;SDS011;27185;52.040;4.490;2023-08-07T15:45:55;1.85;;;0.40;;
41446;SDS011;27185;52.040;4.490;2023-08-07T15:48:40;1.95;;;0.40;;
41446;SDS011;27185;52.040;4.490;2023-08-07T15:51:26;2.92;;;0.50;;
41446;SDS011;27185;52.040;4.490;2023-08-07T15:54:20;1.17;;;0.50;;
41446;SDS011;27185;52.040;4.490;2023-08-07T15:57:06;1.30;;;0.50;;
41446;SDS011;27185;52.040;4.490;2023-08-07T15:59:52;1.60;;;0.40;;
41446;SDS011;27185;52.040;4.490;2023-08-07T16:02:37;1.77;;;0.60;;
41446;SDS011;27185;52.040;4.490;2023-08-07T16:05:23;1.67;;;0.50;;
41446;SDS011;27185;52.040;4.490;2023-08-07T16:08:09;1.63;;;0.40;;
41446;SDS011;27185;52.040;4.490;2023-08-07T16:10:56;1.50;;;0.60;;
41446;SDS011;27185;52.040;4.490;2023-08-07T16:13:42;3.30;;;0.77;;
41446;SDS011;27185;52.040;4.490;2023-08-07T16:16:28;1.10;;;0.40;;
41446;SDS011;27185;52.040;4.490;2023-08-07T16:19:14;1.45;;;0.45;;
41446;SDS011;27185;52.040;4.490;2023-08-07T16:22:00;4.00;;;0.52;;
41446;SDS011;27185;52.040;4.490;2023-08-07T16:24:46;2.45;;;0.47;;
41446;SDS011;27185;52.040;4.490;2023-08-07T16:27:32;1.65;;;0.50;;
41446;SDS011;27185;52.040;4.490;2023-08-07T16:30:18;1.05;;;0.47;;
41446;SDS011;27185;52.040;4.490;2023-08-07T16:33:04;1.80;;;0.50;;
41446;SDS011;27185;52.040;4.490;2023-08-07T16:35:50;2.03;;;0.57;;
41446;SDS011;27185;52.040;4.490;2023-08-07T16:38:35;4.25;;;0.60;;
41446;SDS011;27185;52.040;4.490;2023-08-07T16:41:21;4.60;;;0.60;;
41446;SDS011;27185;52.040;4.490;2023-08-07T16:44:07;5.35;;;0.70;;
41446;SDS011;27185;52.040;4.490;2023-08-07T16:46:53;2.90;;;0.60;;
41446;SDS011;27185;52.040;4.490;2023-08-07T16:49:39;4.45;;;0.70;;
41446;SDS011;27185;52.040;4.490;2023-08-07T16:52:25;4.60;;;0.70;;
41446;SDS011;27185;52.040;4.490;2023-08-07T16:55:11;1.30;;;0.60;;